Latest Weather Observations for Christmas Island

IDW60801

Issued at 4:32 am WST Monday 30 March 2015 (issued every 30 minutes, with the page automatically refreshed every 10 minutes)

About weather observations | Map of weather stations | Latest weather observations for WA | Other Formats
Station Details ID: 200790 Name: CHRISTMAS ISLAND AERO Lat: -10.45 Lon: 105.69 Height: 261.0 m
Data from the previous 72 hours. | See also: Recent months at Christmas Island
Date/Time
WST
Temp
°C
App
Temp
°C
Dew
Point
Rel
Hum
%
Delta-T
°C
Wind Press
QNH
hPa
Press
MSL
hPa
Rain
since 9 am
mm
Dir
 
Spd
km/h
Gust
km/h
Spd
kts
Gust
kts
30/04:20am 25.4 29.4 23.7 90 1.2 SE 9 13 5 7 1011.4 - 0.0
30/04:09am 25.5 29.1 23.8 90 1.2 ESE 11 15 6 8 1011.4 - 0.0
30/04:00am 25.5 29.1 23.8 90 1.2 ESE 11 13 6 7 1011.4 1009.8 0.0
30/03:04am 25.3 29.3 23.7 91 1.1 ESE 9 11 5 6 1011.6 - 0.0
30/03:00am 25.2 29.6 23.8 92 1.0 ESE 7 11 4 6 1011.7 - 0.0
30/02:50am 25.2 29.7 23.9 92 0.9 ESE 7 9 4 5 1011.8 - 0.0
30/02:10am - - - - - ESE 7 11 4 6 - - 0.0
30/02:00am 25.4 29.5 24.0 92 1.0 ESE 9 11 5 6 1011.9 - 0.0
30/01:32am 25.6 29.7 23.9 90 1.2 ESE 9 13 5 7 1012.2 - 0.0
30/01:27am 25.5 29.6 23.9 91 1.1 ESE 9 13 5 7 1012.2 - 0.0
30/01:06am 25.4 29.4 23.8 91 1.1 ESE 9 11 5 6 1012.5 - 0.0
30/01:00am 25.4 29.7 23.7 90 1.2 ESE 7 9 4 5 1012.5 1010.8 0.0
30/12:40am 25.4 29.4 23.8 91 1.1 E 9 13 5 7 1012.6 - 0.0
30/12:00am 25.4 29.0 23.8 91 1.1 E 11 13 6 7 1012.6 - 0.0
 
Date/Time
WST
Temp
°C
App
Temp
°C
Dew
Point
Rel
Hum
%
Delta-T
°C
Wind Press
QNH
hPa
Press
MSL
hPa
Rain
since 9 am
mm
Dir
 
Spd
km/h
Gust
km/h
Spd
kts
Gust
kts
29/11:00pm 25.6 29.6 23.7 89 1.3 E 9 11 5 6 1013.2 - 0.0
29/10:00pm 26.0 29.8 23.5 86 1.7 E 9 13 5 7 1012.8 1011.2 0.0
29/09:29pm 26.1 30.1 23.8 87 1.6 NE 9 11 5 6 1012.6 - 0.0
29/09:06pm 26.2 30.7 23.9 87 1.6 NE 7 13 4 7 1012.5 - 0.0
29/09:00pm 26.1 30.6 23.9 88 1.5 NE 7 9 4 5 1012.5 - 0.0
29/08:00pm 26.3 30.5 23.5 84 1.9 ENE 7 11 4 6 1011.8 - 0.0
29/07:00pm 26.6 30.2 23.7 84 2.0 NE 11 17 6 9 1011.2 1009.6 0.0
29/06:00pm 27.3 30.9 23.8 81 2.4 NNE 11 15 6 8 1011.1 - 0.0
29/05:00pm 27.7 30.9 23.7 79 2.8 NE 13 19 7 10 1010.8 - 0.0
29/04:00pm 28.1 31.4 23.9 78 2.9 NNE 13 22 7 12 1010.7 1009.1 0.0
29/03:52pm 28.4 31.2 23.7 75 3.3 NNE 15 22 8 12 1010.7 - 0.0
29/03:32pm 28.2 31.2 24.0 78 2.9 NE 15 22 8 12 1010.8 - 0.0
29/03:00pm 28.6 31.7 23.6 74 3.5 NE 13 17 7 9 1011.1 - 0.0
29/02:00pm 28.9 32.1 23.7 73 3.6 NNE 13 19 7 10 1011.7 - 0.0
29/01:00pm 28.5 30.9 23.6 75 3.4 NE 17 24 9 13 1012.6 1010.9 0.0
29/12:11pm 28.5 30.4 23.8 75 3.3 ENE 20 26 11 14 1012.9 - 0.0
29/12:00pm 28.9 31.1 23.9 74 3.5 ENE 19 28 10 15 1012.9 - 0.0
29/11:54am 28.4 30.9 23.8 76 3.2 ENE 17 24 9 13 1012.9 - 0.0
29/11:00am 28.6 30.3 23.1 72 3.8 E 19 24 10 13 1013.1 - 0.0
29/10:00am 27.8 30.7 23.8 79 2.8 E 15 19 8 10 1013.0 1011.4 8.2
29/09:00am 27.0 29.7 23.4 80 2.5 NE 15 22 8 12 1013.5 - 8.2
29/08:02am 26.0 29.8 23.5 86 1.7 ESE 9 15 5 8 1013.4 - 8.2
29/08:00am 25.9 29.7 23.4 86 1.7 ESE 9 15 5 8 1013.4 - 8.2
29/07:52am 25.7 29.7 23.1 85 1.8 SE 7 15 4 8 1013.4 - 8.2
29/07:21am 25.5 26.5 20.2 72 3.5 NNE 15 24 8 13 1012.8 - 8.2
29/07:05am 25.4 26.1 21.5 79 2.6 NE 20 24 11 13 1012.7 - 8.2
29/07:00am 25.8 28.2 22.9 84 2.0 E 15 24 8 13 1012.7 1011.0 8.2
29/06:24am 26.2 29.3 23.6 85 1.8 E 13 19 7 10 1012.3 - 8.2
29/06:00am 26.2 29.2 23.3 84 2.0 E 13 20 7 11 1012.2 - 8.2
29/05:43am 26.2 29.1 23.1 83 2.1 E 13 20 7 11 1012.2 - 8.2
29/05:00am 26.2 29.4 23.7 86 1.7 E 13 20 7 11 1011.8 - 8.2
29/04:22am 26.3 29.6 23.8 86 1.7 E 13 19 7 10 1011.8 - 8.2
29/04:04am 26.2 29.4 23.7 86 1.7 ESE 13 19 7 10 1011.9 - 8.2
29/04:00am 26.2 29.4 23.7 86 1.7 ESE 13 19 7 10 1011.9 1010.3 8.2
29/03:29am 26.3 29.3 24.0 87 1.6 ESE 15 22 8 12 1012.1 - 8.2
29/03:26am 26.3 28.9 24.0 87 1.6 ESE 17 22 9 12 1012.1 - 8.2
29/03:00am 26.2 29.3 24.2 89 1.4 ESE 15 24 8 13 1012.1 - 8.2
29/02:00am 26.2 29.2 24.0 88 1.5 ESE 15 20 8 11 1012.6 - 8.2
29/01:48am 26.2 29.7 24.2 89 1.4 SE 13 20 7 11 1012.7 - 8.2
29/01:05am 26.1 29.4 23.8 87 1.6 SE 13 19 7 10 1013.3 - 8.2
29/01:02am 26.1 29.4 23.8 87 1.6 SE 13 17 7 9 1013.3 - 8.2
29/01:00am 26.1 29.0 23.8 87 1.6 SE 15 17 8 9 1013.3 1011.7 8.2
29/12:42am 26.1 29.5 24.1 89 1.4 SE 13 17 7 9 1013.3 - 8.2
29/12:35am 26.1 29.5 24.1 89 1.4 SE 13 17 7 9 1013.4 - 8.2
29/12:24am 26.1 29.5 24.1 89 1.4 SE 13 19 7 10 1013.5 - 8.2
29/12:00am 26.1 29.6 24.2 89 1.3 SE 13 17 7 9 1013.8 - 8.2
 
Date/Time
WST
Temp
°C
App
Temp
°C
Dew
Point
Rel
Hum
%
Delta-T
°C
Wind Press
QNH
hPa
Press
MSL
hPa
Rain
since 9 am
mm
Dir
 
Spd
km/h
Gust
km/h
Spd
kts
Gust
kts
28/11:47pm 26.0 29.3 23.8 88 1.5 SE 13 19 7 10 1013.9 - 8.2
28/11:00pm 26.0 29.8 24.0 89 1.4 SE 11 19 6 10 1013.8 - 8.2
28/10:49pm 26.0 29.8 24.0 89 1.4 SE 11 17 6 9 1013.7 - 8.2
28/10:00pm 26.0 29.4 24.1 89 1.3 E 13 19 7 10 1013.3 1011.7 8.2
28/09:00pm 25.5 29.7 24.1 92 1.0 E 9 11 5 6 1013.5 - 8.2
28/08:00pm 24.9 29.2 23.7 93 0.8 E 7 9 4 5 1013.0 - 8.2
28/07:00pm 25.3 28.9 23.1 87 1.5 E 9 17 5 9 1011.9 1010.3 8.2
28/06:48pm 25.2 28.9 23.3 89 1.3 ENE 9 13 5 7 1011.8 - 8.2
28/06:35pm 25.8 29.4 23.8 89 1.4 E 11 17 6 9 1011.5 - 8.2
28/06:00pm 26.2 30.3 24.0 88 1.5 E 9 11 5 6 1010.9 - 8.2
28/05:16pm 25.9 32.0 24.5 92 1.0 CALM 0 0 0 0 1010.7 - 8.2
28/05:07pm 25.8 31.5 24.4 92 1.0 NE 2 9 1 5 1010.9 - 8.2
28/05:00pm 25.4 30.1 24.0 92 1.0 NE 6 9 3 5 1010.9 - 8.0
28/04:43pm 25.6 26.9 22.7 84 2.0 E 20 30 11 16 1011.2 - 3.2
28/04:40pm 26.0 27.4 22.9 83 2.1 E 20 30 11 16 1011.1 - 0.8
28/04:36pm 26.7 28.0 21.7 74 3.4 ESE 17 24 9 13 1010.9 - 0.0
28/04:24pm 27.5 31.1 23.8 80 2.6 E 11 17 6 9 1010.9 - 0.0
28/04:00pm 28.0 31.6 23.7 77 3.0 E 11 15 6 8 1010.8 1009.2 0.0
28/03:54pm 28.2 32.1 23.6 76 3.2 E 9 15 5 8 1010.9 - 0.0
28/03:31pm 27.5 31.9 24.4 83 2.2 E 9 13 5 7 1011.3 - 0.0
28/03:00pm 27.2 31.5 24.2 84 2.1 E 9 15 5 8 1011.4 - 0.0
28/02:00pm 28.9 31.6 24.2 76 3.3 E 17 22 9 12 1011.8 - 0.0
28/01:49pm 28.6 31.2 24.0 76 3.2 E 17 22 9 12 1012.2 - 0.0
28/01:02pm 28.2 31.3 24.8 82 2.4 E 17 22 9 12 1012.7 - 0.0
28/01:00pm 28.0 30.9 24.4 81 2.5 E 17 22 9 12 1012.7 1011.0 0.0
28/12:58pm 28.1 31.0 24.5 81 2.5 E 17 22 9 12 1012.7 - 0.0
28/12:00pm 27.9 31.1 24.3 81 2.5 E 15 24 8 13 1013.2 - 0.0
28/11:51am 27.8 31.0 24.4 82 2.4 E 15 20 8 11 1013.3 - 0.0
28/11:32am 28.5 31.4 24.5 79 2.8 E 17 20 9 11 1013.7 - 0.0
28/11:02am 27.8 30.9 24.2 81 2.5 ENE 15 22 8 12 1013.9 - 0.0
28/11:00am 28.0 31.2 24.3 80 2.6 E 15 22 8 12 1014.0 - 0.0
28/10:12am 27.7 30.7 24.6 83 2.2 E 17 24 9 13 1014.2 - 0.0
28/10:00am 27.6 31.1 24.8 85 2.0 E 15 20 8 11 1014.2 1012.6 13.8
28/09:36am 27.1 30.9 24.7 87 1.7 ESE 13 20 7 11 1014.1 - 13.8
28/09:33am 27.1 30.8 24.5 86 1.8 E 13 20 7 11 1014.0 - 13.8
28/09:00am 25.9 29.3 24.0 89 1.3 ESE 13 20 7 11 1013.8 - 13.8
28/08:49am 26.2 30.1 24.2 89 1.4 E 11 15 6 8 1013.7 - 13.0
28/08:43am 26.4 30.3 24.2 88 1.5 E 11 17 6 9 1013.7 - 13.0
28/08:00am 26.0 30.1 24.6 92 1.0 E 11 13 6 7 1013.2 - 13.0
28/07:28am 25.5 29.8 24.2 92 0.9 E 9 13 5 7 1013.1 - 13.0
28/07:00am 25.1 29.1 23.8 92 0.9 E 9 13 5 7 1012.9 1011.3 13.0
28/06:00am 24.6 28.3 22.5 88 1.4 ENE 7 13 4 7 1012.7 - 13.0
28/05:26am 23.9 26.8 21.8 88 1.4 E 9 13 5 7 1012.6 - 13.0
28/05:02am 24.1 27.8 23.2 95 0.6 E 9 17 5 9 1012.6 - 13.0
28/05:00am 24.0 27.6 23.1 95 0.6 E 9 17 5 9 1012.6 - 13.0
28/04:43am 23.5 26.2 22.2 92 0.9 NE 11 17 6 9 1012.7 - 13.0
28/04:31am 23.5 25.9 22.2 92 0.9 NE 13 20 7 11 1012.9 - 12.8
28/04:11am 23.9 25.8 22.7 93 0.8 ENE 17 24 9 13 1013.5 - 8.8
28/04:00am 24.9 27.3 23.0 89 1.3 ESE 15 22 8 12 1013.4 1011.8 7.8
28/03:01am 25.9 30.0 24.0 89 1.3 E 9 15 5 8 1013.8 - 7.8
28/03:00am 25.9 30.0 24.0 89 1.3 E 9 15 5 8 1013.8 - 7.8
28/02:34am 25.8 29.8 23.8 89 1.4 E 9 13 5 7 1014.1 - 7.8
28/02:00am 26.0 29.4 24.1 89 1.3 E 13 19 7 10 1014.3 - 7.8
28/01:00am 25.9 29.6 24.6 92 0.9 E 13 17 7 9 1014.7 1013.1 7.8
28/12:41am 25.9 29.6 24.6 92 0.9 E 13 17 7 9 1014.9 - 7.8
28/12:38am 25.9 29.6 24.5 92 1.0 E 13 17 7 9 1014.9 - 7.8
28/12:00am 25.8 30.1 24.2 91 1.1 E 9 15 5 8 1015.2 - 7.8
 
Date/Time
WST
Temp
°C
App
Temp
°C
Dew
Point
Rel
Hum
%
Delta-T
°C
Wind Press
QNH
hPa
Press
MSL
hPa
Rain
since 9 am
mm
Dir
 
Spd
km/h
Gust
km/h
Spd
kts
Gust
kts
27/11:56pm 25.7 30.0 24.3 92 1.0 E 9 15 5 8 1015.2 - 7.8
27/11:00pm 25.8 29.9 24.5 92 0.9 E 11 15 6 8 1015.1 - 7.8
27/10:36pm 25.6 29.9 24.3 92 0.9 E 9 15 5 8 1015.0 - 7.8
27/10:00pm 25.4 29.5 24.0 92 1.0 E 9 13 5 7 1014.7 1013.1 7.8
27/09:53pm 25.5 29.6 23.9 91 1.1 E 9 13 5 7 1014.6 - 7.8
27/09:09pm 25.6 29.4 24.0 91 1.1 ESE 11 15 6 8 1014.4 - 7.8
27/09:00pm 25.5 29.1 23.8 90 1.2 ESE 11 15 6 8 1014.4 - 7.8
27/08:00pm 25.1 28.9 23.5 91 1.1 ESE 9 11 5 6 1014.0 - 7.8
27/07:00pm 24.7 28.6 22.9 90 1.2 SE 7 11 4 6 1013.4 1011.8 7.8
27/06:19pm 25.5 31.3 23.9 91 1.1 CALM 0 0 0 0 1013.0 - 7.8
27/06:00pm 25.5 29.9 23.5 89 1.4 ENE 6 17 3 9 1013.1 - 7.8
27/05:22pm 26.4 31.2 24.2 88 1.5 N 6 7 3 4 1013.1 - 7.8
27/05:00pm 26.7 31.2 24.0 85 1.9 SE 7 11 4 6 1013.0 - 7.8
27/04:00pm 25.8 30.2 23.5 87 1.6 SE 6 7 3 4 1013.1 1011.5 7.8
27/03:00pm 25.6 31.0 24.5 94 0.8 SSE 4 7 2 4 1013.4 - 7.8
27/02:56pm 25.7 30.8 24.1 91 1.1 SSE 4 7 2 4 1013.5 - 7.8
27/02:50pm 25.6 30.7 24.0 91 1.1 SSE 4 7 2 4 1013.5 - 7.2
27/02:20pm 26.6 30.2 23.7 84 2.0 N 11 20 6 11 1013.8 - 0.2
27/02:00pm 28.6 32.0 24.6 79 2.8 E 15 19 8 10 1014.2 - 0.2
27/01:13pm 28.5 31.2 24.2 77 3.0 E 17 22 9 12 1014.5 - 0.2
27/01:00pm 28.6 31.4 24.3 77 3.0 E 17 22 9 12 1014.7 1013.1 0.2
27/12:44pm 28.5 31.4 24.4 78 2.9 E 17 22 9 12 1014.8 - 0.2
27/12:16pm 29.1 32.1 24.7 77 3.1 E 17 22 9 12 1015.3 - 0.2
27/12:07pm 28.3 31.1 24.3 79 2.8 E 17 22 9 12 1015.5 - 0.2
27/12:00pm 28.6 31.4 24.3 77 3.0 E 17 20 9 11 1015.5 - 0.2
27/11:00am 27.7 30.9 24.3 82 2.4 E 15 20 8 11 1016.2 - 0.0
27/10:16am 28.3 31.7 24.6 80 2.6 ENE 15 20 8 11 1016.1 - 0.0
27/10:14am 27.9 31.2 24.5 82 2.4 ENE 15 20 8 11 1016.1 - 0.0
27/10:00am 27.0 31.2 24.7 87 1.6 NE 11 19 6 10 1015.9 1014.3 2.6
27/09:31am 27.4 30.9 24.2 83 2.2 E 13 19 7 10 1015.7 - 2.6
27/09:30am 27.3 30.7 24.1 83 2.2 E 13 19 7 10 1015.7 - 2.6
27/09:16am 27.3 30.4 24.1 83 2.2 E 15 20 8 11 1015.5 - 2.6
27/09:04am 27.5 30.9 24.1 82 2.4 ENE 13 19 7 10 1015.5 - 2.6
27/09:00am 27.5 31.2 24.5 84 2.1 E 13 19 7 10 1015.4 - 2.6
27/08:50am 27.2 30.9 24.5 85 1.9 E 13 19 7 10 1015.3 - 2.6
27/08:46am 27.0 30.6 24.3 85 1.9 E 13 19 7 10 1015.2 - 2.6
27/08:00am 26.3 29.9 24.3 89 1.4 E 13 19 7 10 1014.9 - 2.6
27/07:55am 26.3 29.9 24.3 89 1.4 E 13 19 7 10 1014.9 - 2.6
27/07:48am 26.4 30.3 24.2 88 1.5 E 11 17 6 9 1014.8 - 2.6
27/07:00am 25.8 29.7 24.2 91 1.1 E 11 19 6 10 1014.3 1012.7 2.6
27/06:00am 26.1 29.9 24.1 89 1.4 ENE 11 15 6 8 1014.2 - 2.6

Other Formats:

Comma delimited format used in spreadsheet applications
http://www.bom.gov.au/fwo/IDW60801/IDW60801.96995.axf

JavaScript Object Notation format (JSON) in row-major order
http://www.bom.gov.au/fwo/IDW60801/IDW60801.96995.json